createdAt,value
2022-09-23T00:25:55.336Z,5.63
2022-09-23T00:55:55.321Z,5.38
2022-09-23T01:25:55.354Z,5.13
2022-09-23T01:55:55.358Z,5.13
2022-09-23T02:25:55.363Z,4.69
2022-09-23T02:55:55.376Z,4.31
2022-09-23T03:25:55.360Z,3.94
2022-09-23T03:55:55.374Z,3.75
2022-09-23T04:25:55.370Z,3.69
2022-09-23T04:55:55.373Z,3.44
2022-09-23T05:25:55.394Z,3.44
2022-09-23T05:55:55.416Z,3.44
2022-09-23T06:25:55.377Z,4.06
2022-09-23T06:55:55.390Z,5.25
2022-09-23T07:25:55.389Z,6.75
2022-09-23T07:55:55.382Z,8.31
2022-09-23T08:25:57.571Z,9.56
2022-09-23T08:55:55.384Z,11.31
2022-09-23T09:25:55.392Z,12.69
2022-09-23T09:55:55.338Z,13.75
2022-09-23T10:25:55.368Z,14.75
2022-09-23T10:55:55.363Z,15.44
2022-09-23T11:25:55.392Z,16.94
2022-09-23T11:55:58.238Z,16.88
2022-09-23T12:25:55.418Z,17.75
2022-09-23T12:55:55.422Z,18.88
2022-09-23T13:25:55.424Z,20.06
2022-09-23T13:55:55.430Z,20.63
2022-09-23T14:25:55.431Z,20.31
2022-09-23T14:55:55.457Z,20.94
2022-09-23T15:25:55.454Z,19.38
2022-09-23T15:55:55.471Z,18.31
2022-09-23T16:25:55.462Z,18.06
2022-09-23T16:55:55.468Z,16.5
2022-09-23T17:25:55.464Z,15.06
2022-09-23T17:55:55.476Z,14
2022-09-23T18:25:55.487Z,13.06
2022-09-23T18:55:55.508Z,12.31
2022-09-23T19:25:55.499Z,11.75
2022-09-23T19:55:55.513Z,11.38
2022-09-23T20:25:55.541Z,10.94
2022-09-23T20:55:55.526Z,11
2022-09-23T21:25:55.544Z,10.88
2022-09-23T21:55:55.533Z,10.56
2022-09-23T22:25:59.432Z,10.5
2022-09-23T22:55:55.547Z,10.31
2022-09-23T23:25:55.535Z,10.25
2022-09-23T23:55:55.553Z,10.06
